Time;durP1;ratioP1;P1;durP2;ratioP2;P2;SDS_P1;SDS_P2;PMS_P1;PMS_P2;Temp;Humidity;BMP_temperature;BMP_pressure;BME280_temperature;BME280_humidity;BME280_pressure;Samples;Min_cycle;Max_cycle;Signal;HPM_P1;HPM_P2
2023/02/14 00:00:41;;;;;;;133.05;44.67;;;3.40;99.90;;;;;;6272436;22;20015;-80
2023/02/14 00:03:07;;;;;;;112.03;42.42;;;3.10;99.90;;;;;;6244307;22;20162;-80
2023/02/14 00:05:33;;;;;;;108.18;43.35;;;3.00;99.90;;;;;;6270070;22;20039;-79
2023/02/14 00:07:59;;;;;;;95.32;40.83;;;3.40;99.90;;;;;;6245623;22;20462;-79
2023/02/14 00:10:25;;;;;;;103.60;39.95;;;3.50;99.90;;;;;;6246120;22;20011;-78
2023/02/14 00:12:50;;;;;;;101.63;41.17;;;2.90;99.90;;;;;;6272296;22;20086;-81
2023/02/14 00:15:22;;;;;;;97.97;40.85;;;3.30;99.90;;;;;;6269107;22;20047;-80
2023/02/14 00:17:54;;;;;;;96.15;39.17;;;3.30;99.90;;;;;;6244524;22;20105;-80
2023/02/14 00:20:21;;;;;;;87.70;39.10;;;2.80;99.90;;;;;;6246158;22;20012;-79
2023/02/14 00:22:46;;;;;;;103.85;39.88;;;2.60;99.90;;;;;;6271417;22;20427;-80
2023/02/14 00:25:12;;;;;;;95.97;38.97;;;2.90;99.90;;;;;;6270065;22;20089;-80
2023/02/14 00:27:38;;;;;;;89.85;39.15;;;2.60;99.90;;;;;;6269163;22;20011;-79
2023/02/14 00:30:06;;;;;;;96.93;39.45;;;2.90;99.90;;;;;;6272136;22;20038;-79
2023/02/14 00:32:31;;;;;;;95.03;38.55;;;3.00;99.90;;;;;;6245073;22;20008;-80
2023/02/14 00:34:57;;;;;;;80.30;35.28;;;2.60;99.90;;;;;;6272115;22;20094;-80
2023/02/14 00:37:24;;;;;;;74.07;33.83;;;2.90;99.90;;;;;;6273836;22;20003;-80
2023/02/14 00:39:49;;;;;;;80.80;35.70;;;2.50;99.90;;;;;;6270106;22;20088;-80
2023/02/14 00:42:15;;;;;;;81.93;34.72;;;2.50;99.90;;;;;;6271650;22;20119;-80
2023/02/14 00:44:41;;;;;;;91.65;36.17;;;2.90;99.90;;;;;;6270984;22;20019;-80
2023/02/14 00:47:07;;;;;;;87.32;35.30;;;2.70;99.90;;;;;;6267782;22;20035;-80
2023/02/14 00:49:32;;;;;;;76.72;34.83;;;2.90;99.90;;;;;;6269939;22;20608;-80
2023/02/14 00:51:58;;;;;;;74.63;32.70;;;2.80;99.90;;;;;;6270241;22;20012;-79
2023/02/14 00:54:24;;;;;;;77.38;33.33;;;2.50;99.90;;;;;;6267828;22;20008;-79
2023/02/14 00:56:50;;;;;;;79.30;34.03;;;2.50;99.90;;;;;;6272013;22;20019;-78
2023/02/14 00:59:15;;;;;;;71.53;33.90;;;2.90;99.90;;;;;;6271387;22;20031;-80
2023/02/14 01:01:41;;;;;;;74.97;33.67;;;3.00;99.90;;;;;;6245160;22;20012;-80
2023/02/14 01:04:07;;;;;;;82.30;35.03;;;2.50;99.90;;;;;;6270951;22;20047;-80
2023/02/14 01:06:33;;;;;;;78.32;34.58;;;2.80;99.90;;;;;;6245781;22;20023;-79
2023/02/14 01:08:59;;;;;;;79.90;34.90;;;2.70;99.90;;;;;;6272335;22;20091;-79
2023/02/14 01:11:25;;;;;;;76.40;34.30;;;3.00;99.90;;;;;;6246383;22;20019;-79
2023/02/14 01:13:54;;;;;;;73.45;32.90;;;3.00;99.90;;;;;;6246322;22;20016;-79
2023/02/14 01:16:22;;;;;;;73.68;32.90;;;2.80;99.90;;;;;;6272732;22;20077;-80
2023/02/14 01:18:48;;;;;;;74.55;34.55;;;2.40;99.90;;;;;;6272492;22;20091;-80
2023/02/14 01:21:15;;;;;;;73.13;34.05;;;3.00;99.90;;;;;;6273919;22;20016;-79
2023/02/14 01:23:42;;;;;;;78.35;33.75;;;3.00;99.90;;;;;;6271741;22;20050;-79
2023/02/14 01:26:08;;;;;;;79.60;34.45;;;2.90;99.90;;;;;;6248358;22;20086;-79
2023/02/14 01:28:34;;;;;;;74.78;33.83;;;2.90;99.90;;;;;;6276233;22;20012;-79
2023/02/14 01:31:13;;;;;;;86.07;35.85;;;3.00;99.90;;;;;;6271278;22;20015;-78
2023/02/14 01:33:41;;;;;;;75.38;34.00;;;2.50;99.90;;;;;;6245144;22;20014;-79
2023/02/14 01:36:15;;;;;;;76.00;34.72;;;2.50;99.90;;;;;;6273604;22;20023;-79
2023/02/14 01:38:40;;;;;;;73.15;33.95;;;2.40;99.90;;;;;;6273099;22;20055;-79
2023/02/14 01:41:06;;;;;;;74.72;33.85;;;2.90;99.90;;;;;;6273642;22;20042;-78
2023/02/14 01:43:58;;;;;;;77.03;34.72;;;2.80;99.90;;;;;;6273092;22;20068;-79
2023/02/14 01:46:26;;;;;;;72.10;32.55;;;2.80;99.90;;;;;;6246339;22;20462;-79
2023/02/14 01:48:58;;;;;;;71.63;33.53;;;2.40;99.90;;;;;;6273124;22;20083;-78
2023/02/14 01:51:24;;;;;;;71.30;33.15;;;2.80;99.90;;;;;;6247477;22;20031;-79
2023/02/14 01:53:51;;;;;;;71.97;32.47;;;2.40;99.90;;;;;;6273296;22;20008;-77
2023/02/14 01:56:24;;;;;;;62.53;31.70;;;2.60;99.90;;;;;;6247301;22;20022;-77
2023/02/14 01:58:53;;;;;;;76.47;33.60;;;2.80;99.90;;;;;;6234427;22;20063;-77
2023/02/14 02:01:19;;;;;;;68.72;32.42;;;2.90;99.90;;;;;;6292992;22;20054;-78
2023/02/14 02:03:53;;;;;;;63.67;32.17;;;2.20;99.90;;;;;;6285476;22;20390;-78
2023/02/14 02:06:27;;;;;;;75.10;35.40;;;2.20;99.90;;;;;;6279553;22;20011;-79
2023/02/14 02:09:10;;;;;;;74.13;34.53;;;2.20;99.90;;;;;;6274529;22;20018;-79
2023/02/14 02:11:37;;;;;;;78.72;34.30;;;2.50;99.90;;;;;;6272882;22;20447;-79
2023/02/14 02:14:03;;;;;;;70.38;33.72;;;2.70;99.90;;;;;;6245666;22;20022;-78
2023/02/14 02:16:55;;;;;;;68.88;32.55;;;2.80;99.90;;;;;;6246773;22;20390;-77
2023/02/14 02:19:21;;;;;;;69.22;33.88;;;2.60;99.90;;;;;;6247111;22;20015;-79
2023/02/14 02:22:23;;;;;;;66.97;33.08;;;2.80;99.90;;;;;;6247768;22;20031;-79
2023/02/14 02:25:03;;;;;;;73.90;34.05;;;2.30;99.90;;;;;;6244629;22;20085;-78
2023/02/14 02:27:56;;;;;;;71.55;34.33;;;2.40;99.90;;;;;;6271662;22;20093;-78
2023/02/14 02:30:22;;;;;;;71.60;34.97;;;2.20;99.90;;;;;;6273212;22;20012;-80
2023/02/14 02:33:00;;;;;;;76.03;33.80;;;2.30;99.90;;;;;;6245229;22;20008;-78
2023/02/14 02:35:58;;;;;;;69.47;33.75;;;2.30;99.90;;;;;;6266285;22;20038;-78
2023/02/14 02:38:45;;;;;;;65.38;31.48;;;2.70;99.90;;;;;;6181032;23;20016;-78
2023/02/14 02:41:19;;;;;;;76.40;34.55;;;2.80;99.90;;;;;;6185989;23;20100;-78
2023/02/14 02:43:53;;;;;;;73.43;34.28;;;2.30;99.90;;;;;;6184721;23;20028;-79
2023/02/14 02:46:48;;;;;;;74.30;35.08;;;2.50;99.90;;;;;;6181873;23;20020;-77
2023/02/14 02:55:27;;;;;;;79.00;34.08;;;2.60;99.90;;;;;;6066875;23;20019;-79
2023/02/14 02:57:54;;;;;;;76.00;33.80;;;2.80;99.90;;;;;;6044151;23;20054;-78
2023/02/14 03:00:23;;;;;;;75.75;34.50;;;2.50;99.90;;;;;;6042921;23;20019;-80
2023/02/14 03:05:36;;;;;;;73.40;33.60;;;2.50;99.90;;;;;;6063857;23;20491;-80
2023/02/14 03:08:03;;;;;;;74.95;33.92;;;2.50;99.90;;;;;;6065088;23;20022;-79
2023/02/14 03:10:34;;;;;;;72.65;33.03;;;2.50;99.90;;;;;;6042455;23;20025;-80
2023/02/14 03:13:32;;;;;;;78.85;34.13;;;2.20;99.90;;;;;;6064472;23;20056;-80
2023/02/14 03:16:03;;;;;;;78.07;34.63;;;2.60;99.90;;;;;;6113897;23;20014;-80
2023/02/14 03:21:51;;;;;;;77.68;34.40;;;2.60;99.90;;;;;;6123037;23;20029;-80
2023/02/14 03:24:24;;;;;;;78.10;34.85;;;2.00;99.90;;;;;;6096619;23;20109;-81
2023/02/14 03:26:53;;;;;;;80.28;35.40;;;2.50;99.90;;;;;;6199115;22;20047;-80
2023/02/14 03:29:28;;;;;;;76.25;33.42;;;2.50;99.90;;;;;;6219231;22;20016;-80
2023/02/14 03:32:02;;;;;;;80.07;35.42;;;2.00;99.90;;;;;;6218051;22;20008;-81
2023/02/14 03:34:51;;;;;;;82.45;35.28;;;2.00;99.90;;;;;;6242710;22;20014;-81
2023/02/14 03:37:27;;;;;;;83.78;35.53;;;2.00;99.90;;;;;;6269060;22;20044;-80
2023/02/14 03:40:18;;;;;;;89.40;36.03;;;2.60;99.90;;;;;;6266485;22;20042;-81
2023/02/14 03:42:56;;;;;;;83.45;35.28;;;2.10;99.90;;;;;;6219067;22;20011;-80
2023/02/14 03:45:29;;;;;;;71.32;33.45;;;2.30;99.90;;;;;;6217991;22;20047;-80
2023/02/14 03:47:59;;;;;;;76.90;34.50;;;1.90;99.90;;;;;;6215791;22;20012;-80
2023/02/14 03:50:26;;;;;;;85.57;36.40;;;2.00;99.90;;;;;;6218465;22;20023;-80
2023/02/14 03:52:53;;;;;;;87.50;36.90;;;2.40;99.90;;;;;;6217997;22;20336;-80
2023/02/14 03:55:31;;;;;;;82.28;35.85;;;2.50;99.90;;;;;;6216512;22;20018;-80
2023/02/14 03:58:09;;;;;;;90.90;35.50;;;2.00;99.90;;;;;;6218453;22;20272;-79
2023/02/14 04:00:38;;;;;;;89.05;36.13;;;1.80;99.90;;;;;;6269983;22;20007;-81
2023/02/14 04:03:10;;;;;;;79.18;35.28;;;2.20;99.90;;;;;;6217614;22;20076;-80
2023/02/14 04:05:41;;;;;;;92.28;37.15;;;2.30;99.90;;;;;;6244541;22;20038;-79
2023/02/14 04:08:06;;;;;;;84.80;35.28;;;1.90;99.90;;;;;;6254069;22;20030;-78
2023/02/14 04:10:32;;;;;;;95.55;36.92;;;1.80;99.90;;;;;;6244192;22;20593;-79
2023/02/14 04:12:58;;;;;;;93.47;36.30;;;2.40;99.90;;;;;;6266562;22;20012;-80
2023/02/14 04:15:23;;;;;;;95.88;37.75;;;1.90;99.90;;;;;;6243334;22;20490;-80
2023/02/14 04:20:34;;;;;;;94.90;37.60;;;2.10;99.90;;;;;;6250398;22;20020;-79
2023/02/14 04:22:59;;;;;;;98.65;37.35;;;2.40;99.90;;;;;;6245402;22;20022;-79
2023/02/14 04:25:26;;;;;;;95.22;38.30;;;2.50;99.90;;;;;;6245021;22;20016;-80
2023/02/14 04:27:52;;;;;;;108.28;38.47;;;2.30;99.90;;;;;;6246290;22;20012;-80
2023/02/14 04:30:19;;;;;;;93.70;37.75;;;2.10;99.90;;;;;;6245989;22;20015;-79
2023/02/14 04:32:45;;;;;;;94.32;37.00;;;2.40;99.90;;;;;;6244672;22;20007;-79
2023/02/14 04:35:11;;;;;;;92.93;37.45;;;2.10;99.90;;;;;;6245866;22;20051;-79
2023/02/14 04:37:36;;;;;;;96.88;37.50;;;1.90;99.90;;;;;;6271029;22;20022;-79
2023/02/14 04:40:02;;;;;;;99.78;38.08;;;2.00;99.90;;;;;;6257511;22;20039;-80
2023/02/14 04:42:28;;;;;;;103.85;38.38;;;2.30;99.90;;;;;;6245439;22;20047;-79
2023/02/14 04:44:54;;;;;;;103.05;37.95;;;1.90;99.90;;;;;;6247583;22;20032;-79
2023/02/14 04:47:19;;;;;;;105.75;39.63;;;2.30;99.90;;;;;;6245341;22;20020;-80
2023/02/14 04:49:45;;;;;;;100.90;38.53;;;2.40;99.90;;;;;;6269832;22;20057;-80
2023/02/14 04:52:12;;;;;;;98.03;38.33;;;2.40;99.90;;;;;;6272521;22;20062;-79
2023/02/14 04:54:37;;;;;;;92.75;36.90;;;2.10;99.90;;;;;;6247973;22;20018;-80
2023/02/14 04:57:03;;;;;;;91.38;37.20;;;2.00;99.90;;;;;;6272857;22;20087;-79
2023/02/14 04:59:29;;;;;;;97.07;37.13;;;2.30;99.90;;;;;;6248635;22;20018;-79
2023/02/14 05:01:55;;;;;;;92.10;37.20;;;2.20;99.90;;;;;;6275836;22;20332;-78
2023/02/14 05:04:20;;;;;;;92.60;35.65;;;2.20;99.90;;;;;;6247411;22;20308;-79
2023/02/14 05:06:46;;;;;;;84.95;36.28;;;1.70;99.90;;;;;;6274700;22;20020;-79
2023/02/14 05:09:12;;;;;;;88.72;36.25;;;1.60;99.90;;;;;;6273298;22;20427;-80
2023/02/14 05:11:37;;;;;;;85.95;35.97;;;2.10;99.90;;;;;;6240789;22;20054;-79
2023/02/14 05:14:03;;;;;;;82.03;34.22;;;1.70;99.90;;;;;;6246705;22;20090;-79
2023/02/14 05:16:29;;;;;;;84.47;34.05;;;1.50;99.90;;;;;;6245977;22;20507;-79
2023/02/14 05:18:55;;;;;;;83.18;36.38;;;1.80;99.90;;;;;;6222512;22;20022;-80
2023/02/14 05:21:20;;;;;;;80.80;33.97;;;1.60;99.90;;;;;;6248176;22;20057;-79
2023/02/14 05:23:46;;;;;;;90.97;35.85;;;1.70;99.90;;;;;;6221811;22;20016;-79
2023/02/14 05:26:11;;;;;;;86.05;34.50;;;1.50;99.90;;;;;;6247037;22;20012;-80
2023/02/14 05:28:39;;;;;;;105.68;38.08;;;1.90;99.90;;;;;;6248142;22;20011;-80
2023/02/14 05:31:05;;;;;;;103.07;38.20;;;1.70;99.90;;;;;;6221305;22;20336;-80
2023/02/14 05:33:31;;;;;;;111.22;40.17;;;1.40;99.90;;;;;;6247219;22;20025;-79
2023/02/14 05:36:01;;;;;;;107.72;39.10;;;1.40;99.90;;;;;;6247023;22;20495;-78
2023/02/14 05:38:27;;;;;;;102.45;37.50;;;1.90;99.90;;;;;;6247688;22;20014;-78
2023/02/14 05:40:53;;;;;;;144.52;43.38;;;1.90;99.90;;;;;;6247686;22;20114;-80
2023/02/14 05:43:19;;;;;;;113.07;39.20;;;1.60;99.90;;;;;;6247668;22;20046;-80
2023/02/14 05:45:45;;;;;;;166.35;45.45;;;1.50;99.90;;;;;;6220541;22;20042;-80
2023/02/14 05:48:10;;;;;;;172.68;46.33;;;1.60;99.90;;;;;;6245921;22;20011;-79
2023/02/14 05:50:36;;;;;;;202.82;46.83;;;1.70;99.90;;;;;;6222082;22;20030;-80
2023/02/14 05:53:03;;;;;;;376.20;53.47;;;1.60;99.90;;;;;;6247344;22;20020;-78
2023/02/14 05:55:29;;;;;;;273.83;47.92;;;1.60;99.90;;;;;;6221713;22;20307;-79
2023/02/14 05:57:55;;;;;;;215.02;46.90;;;1.90;99.90;;;;;;6247132;22;20102;-79
2023/02/14 06:00:21;;;;;;;361.98;53.58;;;1.80;99.90;;;;;;6222670;22;20466;-79
2023/02/14 06:02:47;;;;;;;321.98;50.47;;;1.60;99.90;;;;;;6246301;22;20023;-78
2023/02/14 06:05:14;;;;;;;259.80;49.40;;;2.00;99.90;;;;;;6246334;22;20011;-80
2023/02/14 06:07:42;;;;;;;145.55;43.05;;;2.20;99.90;;;;;;6246405;22;20427;-78
2023/02/14 06:10:08;;;;;;;162.95;43.85;;;1.70;99.90;;;;;;6247604;22;20046;-79
2023/02/14 06:12:34;;;;;;;334.13;47.30;;;1.90;99.90;;;;;;6263429;22;20019;-80
2023/02/14 06:15:00;;;;;;;194.23;44.63;;;2.20;99.90;;;;;;6244440;22;20018;-81
2023/02/14 06:17:25;;;;;;;455.17;54.70;;;2.10;99.90;;;;;;6272073;22;20425;-79
2023/02/14 06:19:51;;;;;;;294.33;48.00;;;2.10;99.90;;;;;;6272542;22;20011;-79
2023/02/14 06:22:20;;;;;;;323.50;48.17;;;2.20;99.90;;;;;;6272591;22;20018;-81
2023/02/14 06:24:46;;;;;;;217.82;45.28;;;2.10;99.90;;;;;;6246882;22;20022;-83
2023/02/14 06:27:11;;;;;;;282.65;47.55;;;1.90;99.90;;;;;;6272304;22;20016;-82
2023/02/14 06:29:37;;;;;;;142.80;39.33;;;1.60;99.90;;;;;;6246620;22;20015;-81
2023/02/14 06:32:05;;;;;;;173.05;41.03;;;1.70;99.90;;;;;;6269688;22;20427;-79
2023/02/14 06:34:32;;;;;;;176.15;40.30;;;1.60;99.90;;;;;;6270894;22;20266;-80
2023/02/14 06:36:58;;;;;;;131.25;37.88;;;2.00;99.90;;;;;;6246322;22;20022;-78
2023/02/14 06:39:24;;;;;;;253.68;42.30;;;1.50;99.90;;;;;;6271447;22;20026;-78
2023/02/14 06:41:49;;;;;;;232.60;42.55;;;1.60;99.90;;;;;;6246628;22;20038;-79
2023/02/14 06:44:15;;;;;;;150.60;40.05;;;1.90;99.90;;;;;;6271473;22;20075;-80
2023/02/14 06:46:41;;;;;;;180.75;39.90;;;1.80;99.90;;;;;;6244917;22;20401;-77
2023/02/14 06:49:06;;;;;;;210.35;41.65;;;1.90;99.90;;;;;;6271074;22;20351;-81
2023/02/14 06:51:32;;;;;;;252.98;43.08;;;1.50;99.90;;;;;;6269267;22;20336;-79
2023/02/14 06:53:57;;;;;;;301.63;46.65;;;1.70;99.90;;;;;;6242434;22;20044;-78
2023/02/14 06:56:23;;;;;;;171.75;40.95;;;1.70;99.90;;;;;;6243396;22;20614;-78
2023/02/14 06:58:49;;;;;;;198.98;41.22;;;1.50;99.90;;;;;;6242412;22;20012;-78
2023/02/14 07:01:14;;;;;;;403.30;51.28;;;1.80;99.90;;;;;;6267845;22;20016;-79
2023/02/14 07:03:41;;;;;;;209.07;42.60;;;1.50;99.90;;;;;;6266361;22;20154;-78
2023/02/14 07:06:07;;;;;;;231.52;42.25;;;1.40;99.90;;;;;;6268330;22;20024;-79
2023/02/14 07:08:33;;;;;;;258.27;42.03;;;1.80;99.90;;;;;;6242068;22;20016;-79
2023/02/14 07:10:59;;;;;;;264.90;43.13;;;1.40;99.90;;;;;;6242703;22;20314;-79
2023/02/14 07:13:25;;;;;;;386.83;44.72;;;1.50;99.90;;;;;;6261412;22;20285;-79
2023/02/14 07:15:50;;;;;;;204.88;41.60;;;1.50;99.90;;;;;;6243144;22;20078;-81
2023/02/14 07:18:16;;;;;;;226.50;41.00;;;1.80;99.90;;;;;;6240062;22;20020;-79
2023/02/14 07:20:43;;;;;;;203.20;38.92;;;1.60;99.90;;;;;;6266718;22;20068;-79
2023/02/14 07:23:09;;;;;;;142.40;37.10;;;1.40;99.90;;;;;;6265668;22;20051;-79
2023/02/14 07:25:35;;;;;;;296.38;44.17;;;1.50;99.90;;;;;;6264618;22;20090;-79
2023/02/14 07:28:01;;;;;;;238.45;41.55;;;1.50;99.90;;;;;;6263409;22;20039;-78
2023/02/14 07:30:26;;;;;;;240.65;40.35;;;1.60;99.90;;;;;;6262228;22;20378;-79
2023/02/14 07:32:52;;;;;;;231.20;42.72;;;1.70;99.90;;;;;;6264599;22;20015;-79
2023/02/14 07:35:18;;;;;;;202.90;39.63;;;1.50;99.90;;;;;;6237122;22;20012;-79
2023/02/14 07:37:44;;;;;;;181.82;41.08;;;1.40;99.90;;;;;;6264659;22;20341;-78
2023/02/14 07:40:10;;;;;;;155.70;41.00;;;1.60;99.90;;;;;;6236797;22;20011;-79
2023/02/14 07:42:36;;;;;;;240.70;44.03;;;1.60;99.90;;;;;;6213820;22;20831;-78
2023/02/14 07:45:03;;;;;;;123.43;38.55;;;1.90;99.90;;;;;;6265262;22;20058;-79
2023/02/14 07:47:28;;;;;;;142.85;40.22;;;2.00;99.90;;;;;;6265876;22;20043;-80
2023/02/14 07:49:54;;;;;;;97.63;37.40;;;1.90;99.90;;;;;;6237420;22;20101;-79
2023/02/14 07:52:20;;;;;;;110.90;39.38;;;2.00;99.90;;;;;;6265853;22;20019;-79
2023/02/14 07:54:45;;;;;;;85.97;36.50;;;1.50;99.90;;;;;;6239685;22;20012;-79
2023/02/14 07:57:11;;;;;;;85.43;36.13;;;1.90;99.90;;;;;;6264520;22;20018;-77
2023/02/14 07:59:36;;;;;;;84.60;35.80;;;2.00;99.90;;;;;;6240540;22;20019;-77
2023/02/14 08:02:02;;;;;;;92.68;37.15;;;1.80;99.90;;;;;;6265539;22;20035;-76
2023/02/14 08:04:28;;;;;;;96.28;36.03;;;1.70;99.90;;;;;;6239758;22;20022;-76
2023/02/14 08:06:54;;;;;;;85.28;34.97;;;1.60;99.90;;;;;;6271512;22;20368;-76
2023/02/14 08:09:23;;;;;;;78.85;34.78;;;2.00;99.90;;;;;;6242782;22;20016;-76
2023/02/14 08:14:38;;;;;;;86.65;34.10;;;2.10;99.90;;;;;;6268775;22;20451;-78
2023/02/14 08:17:06;;;;;;;70.50;34.08;;;1.80;99.90;;;;;;6266843;22;20019;-79
2023/02/14 08:19:32;;;;;;;72.55;33.00;;;2.00;99.90;;;;;;6238281;22;20119;-77
2023/02/14 08:21:58;;;;;;;71.10;33.10;;;2.00;99.90;;;;;;6239801;22;20019;-78
2023/02/14 08:24:23;;;;;;;64.43;32.55;;;2.10;99.90;;;;;;6265668;22;20079;-77
2023/02/14 08:26:49;;;;;;;70.85;34.92;;;1.70;99.90;;;;;;6267089;22;20693;-79
2023/02/14 08:29:15;;;;;;;70.53;34.45;;;1.80;99.90;;;;;;6268772;22;20304;-79
2023/02/14 08:31:41;;;;;;;70.70;35.88;;;2.30;99.90;;;;;;6240901;22;20018;-78
2023/02/14 08:34:06;;;;;;;74.10;34.50;;;1.80;99.90;;;;;;6266030;22;20309;-78
2023/02/14 08:36:33;;;;;;;63.63;32.50;;;2.20;99.90;;;;;;6268452;22;20582;-76
2023/02/14 08:38:59;;;;;;;60.28;33.05;;;2.30;99.90;;;;;;6243205;22;20436;-76
2023/02/14 08:41:24;;;;;;;61.05;32.83;;;2.50;99.90;;;;;;6269763;22;20039;-78
2023/02/14 08:43:50;;;;;;;61.53;33.85;;;2.60;99.90;;;;;;6270314;22;20398;-76
2023/02/14 08:46:16;;;;;;;65.50;33.58;;;2.50;99.90;;;;;;6269203;22;20030;-78
2023/02/14 08:48:44;;;;;;;67.20;34.05;;;2.60;99.90;;;;;;6265485;22;20026;-76
2023/02/14 08:51:12;;;;;;;60.63;32.35;;;2.10;99.90;;;;;;6270642;22;20015;-78
2023/02/14 08:53:39;;;;;;;62.40;33.03;;;2.40;99.90;;;;;;6268797;22;20019;-77
2023/02/14 08:56:07;;;;;;;62.38;35.22;;;2.80;99.90;;;;;;6245120;22;20012;-76
2023/02/14 08:58:34;;;;;;;59.80;33.95;;;2.90;99.90;;;;;;6271238;22;20015;-78
2023/02/14 09:01:07;;;;;;;66.20;34.92;;;2.60;99.90;;;;;;6244491;22;20073;-77
2023/02/14 09:03:33;;;;;;;65.43;36.92;;;2.60;99.90;;;;;;6267760;22;20113;-76
2023/02/14 09:06:07;;;;;;;65.47;35.88;;;2.80;99.90;;;;;;6269930;22;20015;-77
2023/02/14 09:08:33;;;;;;;66.75;37.60;;;2.90;99.90;;;;;;6243033;22;21005;-77
2023/02/14 09:11:07;;;;;;;61.15;35.58;;;2.80;99.90;;;;;;6242692;22;20637;-77
2023/02/14 09:13:32;;;;;;;65.72;35.80;;;2.90;99.90;;;;;;6245842;22;20043;-77
2023/02/14 09:16:01;;;;;;;69.40;37.17;;;3.00;99.90;;;;;;6246460;22;20023;-77
2023/02/14 09:18:27;;;;;;;66.25;36.58;;;3.40;99.90;;;;;;6244846;22;20026;-77
2023/02/14 09:20:52;;;;;;;68.25;37.58;;;3.00;99.90;;;;;;6246880;22;20011;-78
2023/02/14 09:23:18;;;;;;;64.05;37.53;;;3.30;99.90;;;;;;6245509;22;20047;-78
2023/02/14 09:25:44;;;;;;;60.80;36.33;;;3.60;99.90;;;;;;6272374;22;20095;-78
2023/02/14 09:28:09;;;;;;;66.50;37.90;;;3.70;99.90;;;;;;6247836;22;20047;-78
2023/02/14 09:30:35;;;;;;;63.35;38.08;;;3.80;99.90;;;;;;6273152;22;20431;-77
2023/02/14 09:33:03;;;;;;;68.80;38.75;;;3.80;99.90;;;;;;6271386;22;20043;-78
2023/02/14 09:38:18;;;;;;;65.78;39.20;;;3.70;99.90;;;;;;6272118;22;20123;-78
2023/02/14 09:40:45;;;;;;;63.78;37.85;;;4.00;99.90;;;;;;6273613;22;20418;-78
2023/02/14 09:43:22;;;;;;;65.50;37.03;;;4.00;99.90;;;;;;6246005;22;20269;-78
2023/02/14 09:45:53;;;;;;;63.20;38.15;;;3.70;99.90;;;;;;6245859;22;20034;-78
2023/02/14 09:48:32;;;;;;;64.70;38.85;;;4.30;99.90;;;;;;6272550;22;20018;-77
2023/02/14 09:51:03;;;;;;;62.40;38.55;;;3.80;99.90;;;;;;6272437;22;20100;-78
2023/02/14 09:53:32;;;;;;;65.28;36.88;;;4.40;99.90;;;;;;6272424;22;20062;-78
2023/02/14 09:56:19;;;;;;;62.25;37.95;;;4.50;99.90;;;;;;6241435;22;20019;-77
2023/02/14 09:58:54;;;;;;;60.33;36.35;;;4.10;99.90;;;;;;6243372;22;20011;-77
2023/02/14 10:01:35;;;;;;;63.83;37.80;;;4.50;99.90;;;;;;6242879;22;20642;-78
2023/02/14 10:04:41;;;;;;;60.83;37.58;;;4.70;99.90;;;;;;6243621;22;20111;-79
2023/02/14 10:07:30;;;;;;;60.47;37.75;;;4.30;99.90;;;;;;6241966;22;20297;-78
2023/02/14 10:10:26;;;;;;;61.03;37.47;;;4.60;99.90;;;;;;6244473;22;20019;-78
2023/02/14 10:12:55;;;;;;;63.47;38.80;;;4.80;99.90;;;;;;6269362;22;20024;-79
2023/02/14 10:15:35;;;;;;;62.22;37.95;;;4.50;99.90;;;;;;6220214;22;20034;-79
2023/02/14 10:18:20;;;;;;;58.75;37.53;;;4.60;99.90;;;;;;6219533;22;20020;-81
2023/02/14 10:20:56;;;;;;;;;;;5.20;99.90;;;;;;6247463;22;20015;-78
2023/02/14 10:23:44;;;;;;;57.78;36.17;;;5.30;99.90;;;;;;6252818;22;19934;-79
2023/02/14 10:26:15;;;;;;;63.22;38.67;;;5.20;99.90;;;;;;6247135;22;20012;-79
2023/02/14 10:28:47;;;;;;;61.03;38.47;;;5.40;99.90;;;;;;6249002;22;20016;-79
2023/02/14 10:31:21;;;;;;;59.33;38.38;;;5.60;99.90;;;;;;6221439;22;20011;-79
2023/02/14 10:34:13;;;;;;;66.47;39.47;;;5.60;99.90;;;;;;6220993;22;20020;-78
2023/02/14 10:36:57;;;;;;;57.90;37.38;;;5.70;99.90;;;;;;6246134;22;20342;-79
2023/02/14 10:39:23;;;;;;;54.15;37.45;;;5.60;99.90;;;;;;6247168;22;20026;-78
2023/02/14 10:42:24;;;;;;;57.75;38.15;;;5.80;99.90;;;;;;6247954;22;20016;-78
2023/02/14 10:45:11;;;;;;;58.45;38.70;;;5.70;99.90;;;;;;6246086;22;20089;-78
2023/02/14 10:47:58;;;;;;;58.90;35.55;;;5.90;99.90;;;;;;6245501;22;20086;-78
2023/02/14 10:51:00;;;;;;;57.40;38.22;;;6.20;99.90;;;;;;6221734;22;20034;-77
2023/02/14 10:54:12;;;;;;;60.63;37.63;;;6.20;99.90;;;;;;6218242;22;20011;-78
2023/02/14 10:56:44;;;;;;;63.22;39.90;;;5.90;99.90;;;;;;6229543;22;20049;-77
2023/02/14 10:59:24;;;;;;;53.72;36.05;;;6.60;99.90;;;;;;6249379;22;20011;-79
2023/02/14 11:01:52;;;;;;;56.00;37.85;;;6.30;99.90;;;;;;6245808;22;20013;-78
2023/02/14 11:04:21;;;;;;;54.25;36.75;;;6.30;99.90;;;;;;6218549;22;20047;-77
2023/02/14 11:06:49;;;;;;;64.45;40.75;;;6.90;99.90;;;;;;6246317;22;20012;-79
2023/02/14 11:09:18;;;;;;;56.90;38.15;;;7.10;99.90;;;;;;6244566;22;20011;-78
2023/02/14 11:11:51;;;;;;;54.67;37.40;;;6.90;99.90;;;;;;6216328;22;20012;-76
2023/02/14 11:14:27;;;;;;;54.00;36.17;;;7.10;99.90;;;;;;6241149;22;20027;-76
2023/02/14 11:16:54;;;;;;;53.13;37.53;;;7.00;99.90;;;;;;6263417;22;20008;-77
2023/02/14 11:19:30;;;;;;;57.83;38.47;;;7.30;99.90;;;;;;6216735;22;20074;-77
2023/02/14 11:21:58;;;;;;;57.50;37.65;;;7.60;99.90;;;;;;6243853;22;20047;-77
2023/02/14 11:24:27;;;;;;;46.45;32.60;;;7.50;99.90;;;;;;6216271;22;20022;-77
2023/02/14 11:27:06;;;;;;;44.85;31.67;;;7.60;99.90;;;;;;6244716;22;20458;-76
2023/02/14 11:29:52;;;;;;;51.08;32.95;;;7.50;99.90;;;;;;6219430;22;20012;-76
2023/02/14 11:32:30;;;;;;;50.47;35.35;;;7.70;99.90;;;;;;6218877;22;20019;-76
2023/02/14 11:35:17;;;;;;;48.90;32.90;;;7.50;99.90;;;;;;6217503;22;20008;-77
2023/02/14 11:37:49;;;;;;;47.70;32.03;;;8.00;99.90;;;;;;6241802;22;20019;-78
2023/02/14 11:40:34;;;;;;;44.63;30.33;;;7.60;99.90;;;;;;6240415;22;20018;-78
2023/02/14 11:43:17;;;;;;;;;;;7.70;99.90;;;;;;6216507;22;20102;-78
2023/02/14 11:45:46;;;;;;;42.10;30.58;;;8.20;99.90;;;;;;6212888;22;19915;-78
2023/02/14 11:48:26;;;;;;;44.58;31.02;;;8.30;99.90;;;;;;6242891;22;20128;-78
2023/02/14 11:51:05;;;;;;;50.47;31.52;;;8.40;99.90;;;;;;6219011;22;20023;-80
2023/02/14 11:53:37;;;;;;;47.70;30.48;;;8.20;99.90;;;;;;6243407;22;20030;-77
2023/02/14 11:56:03;;;;;;;41.55;29.38;;;8.50;99.90;;;;;;6221029;22;20309;-78
2023/02/14 11:58:56;;;;;;;45.53;31.88;;;8.30;99.90;;;;;;6243401;22;20124;-79
2023/02/14 12:01:32;;;;;;;47.97;32.38;;;8.90;99.90;;;;;;6242099;22;20451;-77
2023/02/14 12:04:06;;;;;;;48.17;32.75;;;8.70;99.90;;;;;;6243037;22;20304;-79
2023/02/14 12:06:34;;;;;;;43.47;30.53;;;8.90;99.90;;;;;;6245166;22;20086;-78
2023/02/14 12:09:21;;;;;;;47.55;30.95;;;8.90;99.90;;;;;;6219043;22;20345;-79
2023/02/14 12:12:03;;;;;;;45.05;30.00;;;8.80;99.90;;;;;;6218547;22;20082;-79
2023/02/14 12:14:31;;;;;;;43.95;30.63;;;9.10;99.90;;;;;;6244374;22;20011;-77
2023/02/14 12:17:03;;;;;;;40.17;28.38;;;8.80;99.90;;;;;;6239538;22;20093;-80
2023/02/14 12:20:00;;;;;;;45.90;30.17;;;9.10;99.90;;;;;;6216696;22;20047;-80
2023/02/14 12:22:33;;;;;;;44.80;30.05;;;9.10;99.90;;;;;;6187944;23;20439;-79
2023/02/14 12:25:15;;;;;;;41.58;28.23;;;9.40;99.90;;;;;;6185302;23;20027;-79
2023/02/14 12:27:53;;;;;;;45.50;29.67;;;9.50;99.90;;;;;;6188897;23;20018;-80
2023/02/14 12:30:22;;;;;;;41.65;28.92;;;9.20;99.90;;;;;;6215536;23;20016;-79
2023/02/14 12:32:50;;;;;;;41.60;29.27;;;9.70;99.90;;;;;;6212532;23;20043;-80
2023/02/14 12:35:28;;;;;;;44.60;29.35;;;9.50;99.90;;;;;;6215169;23;20019;-79
2023/02/14 12:38:48;;;;;;;46.10;29.25;;;9.60;99.90;;;;;;6215151;23;20440;-78
2023/02/14 12:41:13;;;;;;;45.33;28.27;;;9.50;99.90;;;;;;6088899;23;20025;-80
2023/02/14 12:43:50;;;;;;;42.42;28.48;;;9.60;99.90;;;;;;6066188;23;20097;-79
2023/02/14 12:46:39;;;;;;;43.80;28.98;;;9.60;99.90;;;;;;6062740;23;20081;-78
2023/02/14 12:49:04;;;;;;;44.55;29.70;;;9.90;99.90;;;;;;6063118;23;20062;-78
2023/02/14 12:52:07;;;;;;;42.58;29.15;;;10.20;99.90;;;;;;6041200;23;20015;-78
2023/02/14 12:55:01;;;;;;;37.80;27.58;;;10.00;99.90;;;;;;6037780;23;20759;-79
2023/02/14 12:57:48;;;;;;;39.92;27.88;;;9.90;99.90;;;;;;6063610;23;20030;-79
2023/02/14 13:00:42;;;;;;;46.25;28.65;;;9.90;99.90;;;;;;6040597;23;20490;-79
2023/02/14 13:03:11;;;;;;;38.80;28.60;;;10.10;99.90;;;;;;6064259;23;20015;-80
2023/02/14 13:06:07;;;;;;;44.35;29.08;;;10.10;99.90;;;;;;6042252;23;20299;-78
2023/02/14 13:09:04;;;;;;;46.22;28.77;;;10.30;99.90;;;;;;6064926;23;20105;-80
2023/02/14 13:11:43;;;;;;;46.35;29.67;;;10.30;99.90;;;;;;5976855;24;20424;-79
2023/02/14 13:14:30;;;;;;;41.88;29.50;;;10.60;99.90;;;;;;5975882;23;20047;-79
2023/02/14 13:17:39;;;;;;;44.35;29.55;;;10.50;99.90;;;;;;6123572;23;20291;-79